PWSweather.com
Personal Weather Stations
Station Observations
KCOBLACK1
Chalet Park, Black Hawk, CO 80422

Chalet ParkBlack Hawk, CO 80422

Lat: 39.8294, Lon: -105.48

Elevation: 9370

Station Type: Vantage Pro2

http://www.oscaranddeb.com/weather

Latest ConditionsUpdated 10:30:14 AM MDT Wednesday, Apr 1, 2015
Currently Today's Max Today's Min Today's Average
Temperature 45.8°F7.7°C 46.2°F7.9°C 41.0°F5.0°C 43.9°F6.6°C
Dew Point 16.9°F-8.4°C 18.4°F-7.6°C 14.9°F-9.5°C 16.6°F-8.6°C
Winds 15.0 mph SW24.1 kmh SW 18.0 mph WSW29.0 kmh WSW - 6.6 mph 10.6 kmh
Wind Gusts 20.0 mph32.2 kmh 30.0 mph48.3 kmh - -
Humidity 31% 37% 29% 33%
Pressure 29.53 in1000.0 mb 29.63 in1003.4 mb 29.47 in998.0 mb -
Hour Temp Dew Point Humidity Winds Wind Gusts Pressure Precip Precip Rate Daily Precip Total
10:30 AM 45.8°F7.7°C 16.9°F-8.4°C 31% 15.0 mph SW24.1 kmh SW 20.0 mph32.2 kmh 29.53 in1000.0 mb 0.00 in0.0 mm 0.00 in0.0 mm 0.00 in0.0 mm
10:25 AM 45.5°F7.5°C 16.6°F-8.6°C 31% 4.0 mph WSW6.4 kmh WSW 19.0 mph30.6 kmh 29.53 in1000.0 mb 0.00 in0.0 mm 0.00 in0.0 mm 0.00 in0.0 mm
10:20 AM 46.0°F7.8°C 17.8°F-7.9°C 32% 10.0 mph S16.1 kmh S 18.0 mph29.0 kmh 29.53 in1000.0 mb 0.00 in0.0 mm 0.00 in0.0 mm 0.00 in0.0 mm
10:15 AM 46.0°F7.8°C 17.8°F-7.9°C 32% 13.0 mph WSW20.9 kmh WSW 22.0 mph35.4 kmh 29.53 in1000.0 mb 0.00 in0.0 mm 0.00 in0.0 mm 0.00 in0.0 mm
10:10 AM 46.1°F7.8°C 17.9°F-7.8°C 32% 11.0 mph S17.7 kmh S 23.0 mph37.0 kmh 29.53 in1000.0 mb 0.00 in0.0 mm 0.00 in0.0 mm 0.00 in0.0 mm
10:05 AM 46.2°F7.9°C 17.9°F-7.8°C 32% 15.0 mph WSW24.1 kmh WSW 21.0 mph33.8 kmh 29.53 in1000.0 mb 0.00 in0.0 mm 0.00 in0.0 mm 0.00 in0.0 mm
10:00 AM 45.9°F7.7°C 18.4°F-7.6°C 33% 15.0 mph SW24.1 kmh SW 21.0 mph33.8 kmh 29.53 in1000.0 mb 0.00 in0.0 mm 0.00 in0.0 mm 0.00 in0.0 mm
09:55 AM 45.6°F7.6°C 17.4°F-8.1°C 32% 5.0 mph WSW8.0 kmh WSW 24.0 mph38.6 kmh 29.53 in1000.0 mb 0.00 in0.0 mm 0.00 in0.0 mm 0.00 in0.0 mm
09:50 AM 45.6°F7.6°C 18.1°F-7.7°C 33% 5.0 mph SW8.0 kmh SW 18.0 mph29.0 kmh 29.53 in1000.0 mb 0.00 in0.0 mm 0.00 in0.0 mm 0.00 in0.0 mm
09:45 AM 45.6°F7.6°C 17.4°F-8.1°C 32% 14.0 mph WSW22.5 kmh WSW 28.0 mph45.1 kmh 29.52 in999.7 mb 0.00 in0.0 mm 0.00 in0.0 mm 0.00 in0.0 mm
09:40 AM 45.3°F7.4°C 17.9°F-7.8°C 33% 11.0 mph W17.7 kmh W 22.0 mph35.4 kmh 29.52 in999.7 mb 0.00 in0.0 mm 0.00 in0.0 mm 0.00 in0.0 mm
09:35 AM 45.2°F7.3°C 17.1°F-8.3°C 32% 14.0 mph WSW22.5 kmh WSW 28.0 mph45.1 kmh 29.52 in999.7 mb 0.00 in0.0 mm 0.00 in0.0 mm 0.00 in0.0 mm
09:30 AM 45.5°F7.5°C 18.0°F-7.8°C 33% 10.0 mph WSW16.1 kmh WSW 21.0 mph33.8 kmh 29.52 in999.7 mb 0.00 in0.0 mm 0.00 in0.0 mm 0.00 in0.0 mm
09:25 AM 45.5°F7.5°C 18.0°F-7.8°C 33% 2.0 mph WSW3.2 kmh WSW 18.0 mph29.0 kmh 29.52 in999.7 mb 0.00 in0.0 mm 0.00 in0.0 mm 0.00 in0.0 mm
09:20 AM 45.4°F7.4°C 17.2°F-8.2°C 32% 6.0 mph SW9.7 kmh SW 22.0 mph35.4 kmh 29.52 in999.7 mb 0.00 in0.0 mm 0.00 in0.0 mm 0.00 in0.0 mm
09:15 AM 45.4°F7.4°C 17.2°F-8.2°C 32% 10.0 mph WSW16.1 kmh WSW 21.0 mph33.8 kmh 29.52 in999.7 mb 0.00 in0.0 mm 0.00 in0.0 mm 0.00 in0.0 mm
09:10 AM 45.4°F7.4°C 17.2°F-8.2°C 32% 6.0 mph SW9.7 kmh SW 18.0 mph29.0 kmh 29.52 in999.7 mb 0.00 in0.0 mm 0.00 in0.0 mm 0.00 in0.0 mm
09:05 AM 45.1°F7.3°C 17.7°F-7.9°C 33% 9.0 mph NNW14.5 kmh NNW 13.0 mph20.9 kmh 29.52 in999.7 mb 0.00 in0.0 mm 0.00 in0.0 mm 0.00 in0.0 mm
09:00 AM 45.1°F7.3°C 17.7°F-7.9°C 33% 7.0 mph W11.3 kmh W 19.0 mph30.6 kmh 29.52 in999.7 mb 0.00 in0.0 mm 0.00 in0.0 mm 0.00 in0.0 mm
08:55 AM 44.9°F7.2°C 18.2°F-7.7°C 34% 7.0 mph WNW11.3 kmh WNW 18.0 mph29.0 kmh 29.53 in1000.0 mb 0.00 in0.0 mm 0.00 in0.0 mm 0.00 in0.0 mm
08:50 AM 44.8°F7.1°C 18.1°F-7.7°C 34% 15.0 mph NW24.1 kmh NW 17.0 mph27.4 kmh 29.53 in1000.0 mb 0.00 in0.0 mm 0.00 in0.0 mm 0.00 in0.0 mm
08:45 AM 44.5°F6.9°C 17.2°F-8.2°C 33% 2.0 mph WSW3.2 kmh WSW 15.0 mph24.1 kmh 29.53 in1000.0 mb 0.00 in0.0 mm 0.00 in0.0 mm 0.00 in0.0 mm
08:40 AM 44.2°F6.8°C 16.9°F-8.4°C 33% 7.0 mph WSW11.3 kmh WSW 24.0 mph38.6 kmh 29.53 in1000.0 mb 0.00 in0.0 mm 0.00 in0.0 mm 0.00 in0.0 mm
08:35 AM 44.1°F6.7°C 17.5°F-8.1°C 34% 3.0 mph NW4.8 kmh NW 14.0 mph22.5 kmh 29.53 in1000.0 mb 0.00 in0.0 mm 0.00 in0.0 mm 0.00 in0.0 mm
08:30 AM 43.8°F6.6°C 17.2°F-8.2°C 34% 6.0 mph WSW9.7 kmh WSW 12.0 mph19.3 kmh 29.53 in1000.0 mb 0.00 in0.0 mm 0.00 in0.0 mm 0.00 in0.0 mm
08:25 AM 43.7°F6.5°C 17.1°F-8.3°C 34% 8.0 mph SW12.9 kmh SW 10.0 mph16.1 kmh 29.53 in1000.0 mb 0.00 in0.0 mm 0.00 in0.0 mm 0.00 in0.0 mm
08:20 AM 43.5°F6.4°C 17.0°F-8.3°C 34% 8.0 mph SW12.9 kmh SW 12.0 mph19.3 kmh 29.53 in1000.0 mb 0.00 in0.0 mm 0.00 in0.0 mm 0.00 in0.0 mm
08:15 AM 43.4°F6.3°C 16.9°F-8.4°C 34% 6.0 mph SW9.7 kmh SW 9.0 mph14.5 kmh 29.53 in1000.0 mb 0.00 in0.0 mm 0.00 in0.0 mm 0.00 in0.0 mm
08:10 AM 43.3°F6.3°C 16.8°F-8.4°C 34% 1.0 mph WSW1.6 kmh WSW 7.0 mph11.3 kmh 29.53 in1000.0 mb 0.00 in0.0 mm 0.00 in0.0 mm 0.00 in0.0 mm
08:05 AM 43.3°F6.3°C 16.8°F-8.4°C 34% 6.0 mph SW9.7 kmh SW 11.0 mph17.7 kmh 29.53 in1000.0 mb 0.00 in0.0 mm 0.00 in0.0 mm 0.00 in0.0 mm
08:00 AM 43.2°F6.2°C 16.7°F-8.5°C 34% 5.0 mph WSW8.0 kmh WSW 13.0 mph20.9 kmh 29.53 in1000.0 mb 0.00 in0.0 mm 0.00 in0.0 mm 0.00 in0.0 mm
07:55 AM 43.1°F6.2°C 16.6°F-8.6°C 34% 3.0 mph W4.8 kmh W 8.0 mph12.9 kmh 29.53 in1000.0 mb 0.00 in0.0 mm 0.00 in0.0 mm 0.00 in0.0 mm
07:50 AM 43.2°F6.2°C 16.7°F-8.5°C 34% 2.0 mph WSW3.2 kmh WSW 10.0 mph16.1 kmh 29.52 in999.7 mb 0.00 in0.0 mm 0.00 in0.0 mm 0.00 in0.0 mm
07:45 AM 43.4°F6.3°C 16.9°F-8.4°C 34% 4.0 mph W6.4 kmh W 16.0 mph25.7 kmh 29.52 in999.7 mb 0.00 in0.0 mm 0.00 in0.0 mm 0.00 in0.0 mm
07:40 AM 43.3°F6.3°C 16.8°F-8.4°C 34% 16.0 mph WSW25.7 kmh WSW 24.0 mph38.6 kmh 29.52 in999.7 mb 0.00 in0.0 mm 0.00 in0.0 mm 0.00 in0.0 mm
07:35 AM 43.2°F6.2°C 16.7°F-8.5°C 34% 15.0 mph SW24.1 kmh SW 17.0 mph27.4 kmh 29.52 in999.7 mb 0.00 in0.0 mm 0.00 in0.0 mm 0.00 in0.0 mm
07:30 AM 43.0°F6.1°C 17.2°F-8.2°C 35% 15.0 mph SW24.1 kmh SW 20.0 mph32.2 kmh 29.52 in999.7 mb 0.00 in0.0 mm 0.00 in0.0 mm 0.00 in0.0 mm
07:25 AM 42.6°F5.9°C 17.5°F-8.1°C 36% 5.0 mph WSW8.0 kmh WSW 11.0 mph17.7 kmh 29.52 in999.7 mb 0.00 in0.0 mm 0.00 in0.0 mm 0.00 in0.0 mm
07:20 AM 42.5°F5.8°C 17.4°F-8.1°C 36% 3.0 mph WSW4.8 kmh WSW 9.0 mph14.5 kmh 29.52 in999.7 mb 0.00 in0.0 mm 0.00 in0.0 mm 0.00 in0.0 mm
07:15 AM 42.7°F5.9°C 17.6°F-8.0°C 36% 3.0 mph WSW4.8 kmh WSW 9.0 mph14.5 kmh 29.52 in999.7 mb 0.00 in0.0 mm 0.00 in0.0 mm 0.00 in0.0 mm
07:10 AM 43.0°F6.1°C 17.2°F-8.2°C 35% 5.0 mph SW8.0 kmh SW 17.0 mph27.4 kmh 29.51 in999.3 mb 0.00 in0.0 mm 0.00 in0.0 mm 0.00 in0.0 mm
07:05 AM 42.8°F6.0°C 17.7°F-7.9°C 36% 17.0 mph WSW27.4 kmh WSW 17.0 mph27.4 kmh 29.51 in999.3 mb 0.00 in0.0 mm 0.00 in0.0 mm 0.00 in0.0 mm
07:00 AM 42.9°F6.1°C 17.1°F-8.3°C 35% 2.0 mph WSW3.2 kmh WSW 12.0 mph19.3 kmh 29.51 in999.3 mb 0.00 in0.0 mm 0.00 in0.0 mm 0.00 in0.0 mm
06:55 AM 43.0°F6.1°C 17.2°F-8.2°C 35% 5.0 mph SW8.0 kmh SW 7.0 mph11.3 kmh 29.50 in999.0 mb 0.00 in0.0 mm 0.00 in0.0 mm 0.00 in0.0 mm
06:50 AM 43.3°F6.3°C 17.5°F-8.1°C 35% 5.0 mph WNW8.0 kmh WNW 11.0 mph17.7 kmh 29.51 in999.3 mb 0.00 in0.0 mm 0.00 in0.0 mm 0.00 in0.0 mm
06:45 AM 43.4°F6.3°C 17.5°F-8.1°C 35% 3.0 mph W4.8 kmh W 16.0 mph25.7 kmh 29.50 in999.0 mb 0.00 in0.0 mm 0.00 in0.0 mm 0.00 in0.0 mm
06:40 AM 43.5°F6.4°C 17.6°F-8.0°C 35% 4.0 mph WSW6.4 kmh WSW 17.0 mph27.4 kmh 29.50 in999.0 mb 0.00 in0.0 mm 0.00 in0.0 mm 0.00 in0.0 mm
06:35 AM 43.6°F6.4°C 17.7°F-7.9°C 35% 7.0 mph WSW11.3 kmh WSW 23.0 mph37.0 kmh 29.50 in999.0 mb 0.00 in0.0 mm 0.00 in0.0 mm 0.00 in0.0 mm
06:30 AM 43.6°F6.4°C 17.1°F-8.3°C 34% 4.0 mph SW6.4 kmh SW 10.0 mph16.1 kmh 29.50 in999.0 mb 0.00 in0.0 mm 0.00 in0.0 mm 0.00 in0.0 mm
06:25 AM 43.7°F6.5°C 17.1°F-8.3°C 34% 4.0 mph SW6.4 kmh SW 17.0 mph27.4 kmh 29.50 in999.0 mb 0.00 in0.0 mm 0.00 in0.0 mm 0.00 in0.0 mm
06:20 AM 43.9°F6.6°C 17.3°F-8.2°C 34% 10.0 mph SW16.1 kmh SW 15.0 mph24.1 kmh 29.50 in999.0 mb 0.00 in0.0 mm 0.00 in0.0 mm 0.00 in0.0 mm
06:15 AM 44.0°F6.7°C 17.4°F-8.1°C 34% 2.0 mph SW3.2 kmh SW 11.0 mph17.7 kmh 29.50 in999.0 mb 0.00 in0.0 mm 0.00 in0.0 mm 0.00 in0.0 mm
06:10 AM 44.3°F6.8°C 17.0°F-8.3°C 33% 7.0 mph WSW11.3 kmh WSW 25.0 mph40.2 kmh 29.49 in998.6 mb 0.00 in0.0 mm 0.00 in0.0 mm 0.00 in0.0 mm
06:05 AM 44.3°F6.8°C 17.0°F-8.3°C 33% 5.0 mph SW8.0 kmh SW 22.0 mph35.4 kmh 29.49 in998.6 mb 0.00 in0.0 mm 0.00 in0.0 mm 0.00 in0.0 mm
06:00 AM 44.3°F6.8°C 17.0°F-8.3°C 33% 11.0 mph W17.7 kmh W 24.0 mph38.6 kmh 29.49 in998.6 mb 0.00 in0.0 mm 0.00 in0.0 mm 0.00 in0.0 mm
05:55 AM 44.3°F6.8°C 17.0°F-8.3°C 33% 13.0 mph WSW20.9 kmh WSW 18.0 mph29.0 kmh 29.49 in998.6 mb 0.00 in0.0 mm 0.00 in0.0 mm 0.00 in0.0 mm
05:50 AM 44.5°F6.9°C 17.2°F-8.2°C 33% 7.0 mph WNW11.3 kmh WNW 19.0 mph30.6 kmh 29.49 in998.6 mb 0.00 in0.0 mm 0.00 in0.0 mm 0.00 in0.0 mm
05:45 AM 44.6°F7.0°C 17.2°F-8.2°C 33% 14.0 mph WSW22.5 kmh WSW 21.0 mph33.8 kmh 29.49 in998.6 mb 0.00 in0.0 mm 0.00 in0.0 mm 0.00 in0.0 mm
05:40 AM 44.6°F7.0°C 17.2°F-8.2°C 33% 11.0 mph WSW17.7 kmh WSW 17.0 mph27.4 kmh 29.49 in998.6 mb 0.00 in0.0 mm 0.00 in0.0 mm 0.00 in0.0 mm
05:35 AM 44.6°F7.0°C 16.5°F-8.6°C 32% 12.0 mph W19.3 kmh W 20.0 mph32.2 kmh 29.48 in998.3 mb 0.00 in0.0 mm 0.00 in0.0 mm 0.00 in0.0 mm
05:30 AM 44.7°F7.1°C 16.6°F-8.6°C 32% 15.0 mph SSW24.1 kmh SSW 21.0 mph33.8 kmh 29.48 in998.3 mb 0.00 in0.0 mm 0.00 in0.0 mm 0.00 in0.0 mm
05:25 AM 44.7°F7.1°C 16.6°F-8.6°C 32% 6.0 mph SW9.7 kmh SW 25.0 mph40.2 kmh 29.47 in998.0 mb 0.00 in0.0 mm 0.00 in0.0 mm 0.00 in0.0 mm
05:20 AM 44.7°F7.1°C 16.6°F-8.6°C 32% 2.0 mph WSW3.2 kmh WSW 18.0 mph29.0 kmh 29.48 in998.3 mb 0.00 in0.0 mm 0.00 in0.0 mm 0.00 in0.0 mm
05:15 AM 44.8°F7.1°C 16.7°F-8.5°C 32% 9.0 mph SW14.5 kmh SW 16.0 mph25.7 kmh 29.48 in998.3 mb 0.00 in0.0 mm 0.00 in0.0 mm 0.00 in0.0 mm
05:10 AM 44.9°F7.2°C 16.8°F-8.4°C 32% 8.0 mph SW12.9 kmh SW 21.0 mph33.8 kmh 29.48 in998.3 mb 0.00 in0.0 mm 0.00 in0.0 mm 0.00 in0.0 mm
05:05 AM 45.0°F7.2°C 16.9°F-8.4°C 32% 5.0 mph WSW8.0 kmh WSW 17.0 mph27.4 kmh 29.48 in998.3 mb 0.00 in0.0 mm 0.00 in0.0 mm 0.00 in0.0 mm
05:00 AM 45.0°F7.2°C 16.9°F-8.4°C 32% 9.0 mph NW14.5 kmh NW 27.0 mph43.5 kmh 29.48 in998.3 mb 0.00 in0.0 mm 0.00 in0.0 mm 0.00 in0.0 mm
04:55 AM 45.1°F7.3°C 16.2°F-8.8°C 31% 4.0 mph WSW6.4 kmh WSW 18.0 mph29.0 kmh 29.49 in998.6 mb 0.00 in0.0 mm 0.00 in0.0 mm 0.00 in0.0 mm
04:50 AM 45.2°F7.3°C 16.3°F-8.7°C 31% 5.0 mph WSW8.0 kmh WSW 20.0 mph32.2 kmh 29.49 in998.6 mb 0.00 in0.0 mm 0.00 in0.0 mm 0.00 in0.0 mm
04:45 AM 45.3°F7.4°C 15.7°F-9.1°C 30% 2.0 mph NW3.2 kmh NW 18.0 mph29.0 kmh 29.49 in998.6 mb 0.00 in0.0 mm 0.00 in0.0 mm 0.00 in0.0 mm
04:40 AM 45.4°F7.4°C 15.8°F-9.0°C 30% 2.0 mph WSW3.2 kmh WSW 23.0 mph37.0 kmh 29.49 in998.6 mb 0.00 in0.0 mm 0.00 in0.0 mm 0.00 in0.0 mm
04:35 AM 45.3°F7.4°C 15.7°F-9.1°C 30% 3.0 mph W4.8 kmh W 21.0 mph33.8 kmh 29.48 in998.3 mb 0.00 in0.0 mm 0.00 in0.0 mm 0.00 in0.0 mm
04:30 AM 45.2°F7.3°C 15.6°F-9.1°C 30% 14.0 mph SW22.5 kmh SW 15.0 mph24.1 kmh 29.49 in998.6 mb 0.00 in0.0 mm 0.00 in0.0 mm 0.00 in0.0 mm
04:25 AM 45.2°F7.3°C 15.6°F-9.1°C 30% 7.0 mph SW11.3 kmh SW 16.0 mph25.7 kmh 29.50 in999.0 mb 0.00 in0.0 mm 0.00 in0.0 mm 0.00 in0.0 mm
04:20 AM 45.4°F7.4°C 15.8°F-9.0°C 30% 9.0 mph SW14.5 kmh SW 16.0 mph25.7 kmh 29.49 in998.6 mb 0.00 in0.0 mm 0.00 in0.0 mm 0.00 in0.0 mm
04:15 AM 45.5°F7.5°C 15.8°F-9.0°C 30% 4.0 mph W6.4 kmh W 24.0 mph38.6 kmh 29.50 in999.0 mb 0.00 in0.0 mm 0.00 in0.0 mm 0.00 in0.0 mm
04:10 AM 45.6°F7.6°C 15.1°F-9.4°C 29% 9.0 mph WSW14.5 kmh WSW 17.0 mph27.4 kmh 29.50 in999.0 mb 0.00 in0.0 mm 0.00 in0.0 mm 0.00 in0.0 mm
04:05 AM 45.7°F7.6°C 15.2°F-9.3°C 29% 8.0 mph SW12.9 kmh SW 22.0 mph35.4 kmh 29.50 in999.0 mb 0.00 in0.0 mm 0.00 in0.0 mm 0.00 in0.0 mm
04:00 AM 45.9°F7.7°C 15.4°F-9.2°C 29% 5.0 mph WNW8.0 kmh WNW 24.0 mph38.6 kmh 29.51 in999.3 mb 0.00 in0.0 mm 0.00 in0.0 mm 0.00 in0.0 mm
03:55 AM 46.0°F7.8°C 15.5°F-9.2°C 29% 10.0 mph W16.1 kmh W 30.0 mph48.3 kmh 29.51 in999.3 mb 0.00 in0.0 mm 0.00 in0.0 mm 0.00 in0.0 mm
03:50 AM 46.2°F7.9°C 15.7°F-9.1°C 29% 7.0 mph WSW11.3 kmh WSW 26.0 mph41.8 kmh 29.51 in999.3 mb 0.00 in0.0 mm 0.00 in0.0 mm 0.00 in0.0 mm
03:45 AM 46.1°F7.8°C 15.6°F-9.1°C 29% 8.0 mph W12.9 kmh W 30.0 mph48.3 kmh 29.51 in999.3 mb 0.00 in0.0 mm 0.00 in0.0 mm 0.00 in0.0 mm
03:40 AM 45.9°F7.7°C 15.4°F-9.2°C 29% 17.0 mph WSW27.4 kmh WSW 30.0 mph48.3 kmh 29.51 in999.3 mb 0.00 in0.0 mm 0.00 in0.0 mm 0.00 in0.0 mm
03:35 AM 45.6°F7.6°C 15.9°F-8.9°C 30% 17.0 mph WSW27.4 kmh WSW 19.0 mph30.6 kmh 29.51 in999.3 mb 0.00 in0.0 mm 0.00 in0.0 mm 0.00 in0.0 mm
03:30 AM 45.7°F7.6°C 16.0°F-8.9°C 30% 6.0 mph WSW9.7 kmh WSW 26.0 mph41.8 kmh 29.52 in999.7 mb 0.00 in0.0 mm 0.00 in0.0 mm 0.00 in0.0 mm
03:25 AM 45.9°F7.7°C 15.4°F-9.2°C 29% 13.0 mph SW20.9 kmh SW 26.0 mph41.8 kmh 29.52 in999.7 mb 0.00 in0.0 mm 0.00 in0.0 mm 0.00 in0.0 mm
03:20 AM 45.4°F7.4°C 15.8°F-9.0°C 30% 18.0 mph WSW29.0 kmh WSW 28.0 mph45.1 kmh 29.53 in1000.0 mb 0.00 in0.0 mm 0.00 in0.0 mm 0.00 in0.0 mm
03:15 AM 44.9°F7.2°C 15.3°F-9.3°C 30% 9.0 mph WSW14.5 kmh WSW 22.0 mph35.4 kmh 29.53 in1000.0 mb 0.00 in0.0 mm 0.00 in0.0 mm 0.00 in0.0 mm
03:10 AM 44.7°F7.1°C 15.1°F-9.4°C 30% 13.0 mph SW20.9 kmh SW 19.0 mph30.6 kmh 29.53 in1000.0 mb 0.00 in0.0 mm 0.00 in0.0 mm 0.00 in0.0 mm
03:05 AM 44.7°F7.1°C 15.1°F-9.4°C 30% 5.0 mph WSW8.0 kmh WSW 18.0 mph29.0 kmh 29.54 in1000.3 mb 0.00 in0.0 mm 0.00 in0.0 mm 0.00 in0.0 mm
03:00 AM 44.3°F6.8°C 15.5°F-9.2°C 31% 4.0 mph WNW6.4 kmh WNW 18.0 mph29.0 kmh 29.54 in1000.3 mb 0.00 in0.0 mm 0.00 in0.0 mm 0.00 in0.0 mm
02:55 AM 43.6°F6.4°C 14.9°F-9.5°C 31% 6.0 mph NW9.7 kmh NW 9.0 mph14.5 kmh 29.55 in1000.7 mb 0.00 in0.0 mm 0.00 in0.0 mm 0.00 in0.0 mm
02:50 AM 43.8°F6.6°C 15.1°F-9.4°C 31% Calm Calm 8.0 mph12.9 kmh 29.55 in1000.7 mb 0.00 in0.0 mm 0.00 in0.0 mm 0.00 in0.0 mm
02:45 AM 43.6°F6.4°C 15.7°F-9.1°C 32% 5.0 mph SW8.0 kmh SW 8.0 mph12.9 kmh 29.55 in1000.7 mb 0.00 in0.0 mm 0.00 in0.0 mm 0.00 in0.0 mm
02:40 AM 43.2°F6.2°C 15.3°F-9.3°C 32% 9.0 mph SW14.5 kmh SW 10.0 mph16.1 kmh 29.56 in1001.0 mb 0.00 in0.0 mm 0.00 in0.0 mm 0.00 in0.0 mm
02:35 AM 43.2°F6.2°C 15.3°F-9.3°C 32% 3.0 mph SW4.8 kmh SW 6.0 mph9.7 kmh 29.56 in1001.0 mb 0.00 in0.0 mm 0.00 in0.0 mm 0.00 in0.0 mm
02:30 AM 43.2°F6.2°C 15.3°F-9.3°C 32% 6.0 mph SW9.7 kmh SW 11.0 mph17.7 kmh 29.56 in1001.0 mb 0.00 in0.0 mm 0.00 in0.0 mm 0.00 in0.0 mm
02:25 AM 42.4°F5.8°C 15.3°F-9.3°C 33% 8.0 mph SW12.9 kmh SW 9.0 mph14.5 kmh 29.56 in1001.0 mb 0.00 in0.0 mm 0.00 in0.0 mm 0.00 in0.0 mm
02:20 AM 42.1°F5.6°C 15.7°F-9.1°C 34% 8.0 mph S12.9 kmh S 9.0 mph14.5 kmh 29.56 in1001.0 mb 0.00 in0.0 mm 0.00 in0.0 mm 0.00 in0.0 mm
02:15 AM 42.3°F5.7°C 15.2°F-9.3°C 33% 3.0 mph W4.8 kmh W 8.0 mph12.9 kmh 29.57 in1001.4 mb 0.00 in0.0 mm 0.00 in0.0 mm 0.00 in0.0 mm
02:10 AM 42.4°F5.8°C 16.0°F-8.9°C 34% 3.0 mph SW4.8 kmh SW 7.0 mph11.3 kmh 29.56 in1001.0 mb 0.00 in0.0 mm 0.00 in0.0 mm 0.00 in0.0 mm
02:05 AM 42.8°F6.0°C 15.7°F-9.1°C 33% 1.0 mph SW1.6 kmh SW 12.0 mph19.3 kmh 29.57 in1001.4 mb 0.00 in0.0 mm 0.00 in0.0 mm 0.00 in0.0 mm
02:00 AM 42.9°F6.1°C 15.7°F-9.1°C 33% 4.0 mph WSW6.4 kmh WSW 7.0 mph11.3 kmh 29.57 in1001.4 mb 0.00 in0.0 mm 0.00 in0.0 mm 0.00 in0.0 mm
01:55 AM 43.2°F6.2°C 16.0°F-8.9°C 33% 2.0 mph SW3.2 kmh SW 11.0 mph17.7 kmh 29.57 in1001.4 mb 0.00 in0.0 mm 0.00 in0.0 mm 0.00 in0.0 mm
01:50 AM 43.4°F6.3°C 16.2°F-8.8°C 33% 2.0 mph SSW3.2 kmh SSW 12.0 mph19.3 kmh 29.57 in1001.4 mb 0.00 in0.0 mm 0.00 in0.0 mm 0.00 in0.0 mm
01:45 AM 43.1°F6.2°C 15.9°F-8.9°C 33% 9.0 mph SSW14.5 kmh SSW 12.0 mph19.3 kmh 29.58 in1001.7 mb 0.00 in0.0 mm 0.00 in0.0 mm 0.00 in0.0 mm
01:40 AM 41.9°F5.5°C 16.2°F-8.8°C 35% 4.0 mph SSW6.4 kmh SSW 8.0 mph12.9 kmh 29.58 in1001.7 mb 0.00 in0.0 mm 0.00 in0.0 mm 0.00 in0.0 mm
01:35 AM 41.1°F5.1°C 16.2°F-8.8°C 36% 4.0 mph SSW6.4 kmh SSW 7.0 mph11.3 kmh 29.58 in1001.7 mb 0.00 in0.0 mm 0.00 in0.0 mm 0.00 in0.0 mm
01:30 AM 41.1°F5.1°C 16.2°F-8.8°C 36% 2.0 mph SW3.2 kmh SW 2.0 mph3.2 kmh 29.59 in1002.0 mb 0.00 in0.0 mm 0.00 in0.0 mm 0.00 in0.0 mm
01:25 AM 41.2°F5.1°C 16.2°F-8.8°C 36% Calm Calm 4.0 mph6.4 kmh 29.59 in1002.0 mb 0.00 in0.0 mm 0.00 in0.0 mm 0.00 in0.0 mm
01:20 AM 41.1°F5.1°C 16.2°F-8.8°C 36% 2.0 mph SW3.2 kmh SW 3.0 mph4.8 kmh 29.59 in1002.0 mb 0.00 in0.0 mm 0.00 in0.0 mm 0.00 in0.0 mm
01:15 AM 41.0°F5.0°C 16.7°F-8.5°C 37% 3.0 mph SW4.8 kmh SW 3.0 mph4.8 kmh 29.59 in1002.0 mb 0.00 in0.0 mm 0.00 in0.0 mm 0.00 in0.0 mm
01:10 AM 41.1°F5.1°C 16.8°F-8.4°C 37% 2.0 mph SW3.2 kmh SW 6.0 mph9.7 kmh 29.60 in1002.4 mb 0.00 in0.0 mm 0.00 in0.0 mm 0.00 in0.0 mm
01:05 AM 41.0°F5.0°C 16.7°F-8.5°C 37% 1.0 mph WSW1.6 kmh WSW 6.0 mph9.7 kmh 29.60 in1002.4 mb 0.00 in0.0 mm 0.00 in0.0 mm 0.00 in0.0 mm
01:00 AM 41.1°F5.1°C 16.8°F-8.4°C 37% 1.0 mph WSW1.6 kmh WSW 5.0 mph8.0 kmh 29.60 in1002.4 mb 0.00 in0.0 mm 0.00 in0.0 mm 0.00 in0.0 mm
12:55 AM 41.4°F5.2°C 16.4°F-8.7°C 36% 1.0 mph WSW1.6 kmh WSW 6.0 mph9.7 kmh 29.60 in1002.4 mb 0.00 in0.0 mm 0.00 in0.0 mm 0.00 in0.0 mm
12:50 AM 41.5°F5.3°C 16.5°F-8.6°C 36% 2.0 mph WSW3.2 kmh WSW 6.0 mph9.7 kmh 29.61 in1002.7 mb 0.00 in0.0 mm 0.00 in0.0 mm 0.00 in0.0 mm
12:45 AM 41.5°F5.3°C 16.5°F-8.6°C 36% 2.0 mph W3.2 kmh W 7.0 mph11.3 kmh 29.61 in1002.7 mb 0.00 in0.0 mm 0.00 in0.0 mm 0.00 in0.0 mm
12:40 AM 41.5°F5.3°C 16.5°F-8.6°C 36% 2.0 mph WSW3.2 kmh WSW 6.0 mph9.7 kmh 29.61 in1002.7 mb 0.00 in0.0 mm 0.00 in0.0 mm 0.00 in0.0 mm
12:35 AM 41.8°F5.4°C 16.8°F-8.4°C 36% 2.0 mph WSW3.2 kmh WSW 5.0 mph8.0 kmh 29.61 in1002.7 mb 0.00 in0.0 mm 0.00 in0.0 mm 0.00 in0.0 mm
12:30 AM 42.1°F5.6°C 16.4°F-8.7°C 35% 3.0 mph WSW4.8 kmh WSW 6.0 mph9.7 kmh 29.61 in1002.7 mb 0.00 in0.0 mm 0.00 in0.0 mm 0.00 in0.0 mm
12:25 AM 42.4°F5.8°C 16.7°F-8.5°C 35% 1.0 mph WSW1.6 kmh WSW 7.0 mph11.3 kmh 29.61 in1002.7 mb 0.00 in0.0 mm 0.00 in0.0 mm 0.00 in0.0 mm
12:20 AM 42.4°F5.8°C 16.7°F-8.5°C 35% 3.0 mph W4.8 kmh W 8.0 mph12.9 kmh 29.62 in1003.0 mb 0.00 in0.0 mm 0.00 in0.0 mm 0.00 in0.0 mm
12:15 AM 42.4°F5.8°C 16.7°F-8.5°C 35% 3.0 mph W4.8 kmh W 7.0 mph11.3 kmh 29.62 in1003.0 mb 0.00 in0.0 mm 0.00 in0.0 mm 0.00 in0.0 mm
12:10 AM 42.2°F5.7°C 16.5°F-8.6°C 35% 5.0 mph WNW8.0 kmh WNW 7.0 mph11.3 kmh 29.62 in1003.0 mb 0.00 in0.0 mm 0.00 in0.0 mm 0.00 in0.0 mm
12:05 AM 42.4°F5.8°C 16.7°F-8.5°C 35% 7.0 mph W11.3 kmh W 9.0 mph14.5 kmh 29.62 in1003.0 mb 0.00 in0.0 mm 0.00 in0.0 mm 0.00 in0.0 mm
12:00 AM 42.7°F5.9°C 16.3°F-8.7°C 34% 2.0 mph W3.2 kmh W 7.0 mph11.3 kmh 29.63 in1003.4 mb 0.00 in0.0 mm 0.00 in0.0 mm 0.00 in0.0 mm